createdAt,value
2022-11-19T00:02:03.562Z,10.83
2022-11-19T00:04:30.316Z,10.27
2022-11-19T00:06:57.128Z,10.40
2022-11-19T00:09:26.465Z,10.53
2022-11-19T00:12:14.587Z,11.20
2022-11-19T00:14:45.772Z,11.83
2022-11-19T00:17:12.457Z,11.03
2022-11-19T00:19:41.656Z,11.03
2022-11-19T00:22:08.388Z,11.17
2022-11-19T00:24:37.317Z,10.30
2022-11-19T00:27:08.811Z,11.33
2022-11-19T00:29:35.511Z,9.97
2022-11-19T00:32:02.318Z,10.07
2022-11-19T00:34:29.050Z,10.43
2022-11-19T00:36:55.846Z,10.30
2022-11-19T00:39:23.095Z,10.23
2022-11-19T00:41:49.917Z,10.23
2022-11-19T00:44:18.886Z,10.00
2022-11-19T00:46:48.011Z,10.57
2022-11-19T00:49:14.765Z,9.90
2022-11-19T00:51:43.618Z,10.13
2022-11-19T00:54:10.335Z,10.97
2022-11-19T00:56:37.061Z,10.80
2022-11-19T00:59:03.921Z,10.40
2022-11-19T01:01:30.711Z,10.77
2022-11-19T01:03:57.705Z,12.53
2022-11-19T01:06:25.100Z,11.50
2022-11-19T01:08:52.528Z,10.80
2022-11-19T01:11:23.219Z,11.07
2022-11-19T01:13:49.974Z,11.47
2022-11-19T01:16:23.162Z,10.50
2022-11-19T01:18:52.413Z,11.33
2022-11-19T01:21:23.045Z,11.60
2022-11-19T01:23:52.240Z,11.73
2022-11-19T01:26:21.301Z,11.63
2022-11-19T01:28:48.210Z,10.60
2022-11-19T01:31:21.494Z,10.77
2022-11-19T01:33:48.690Z,11.77
2022-11-19T01:36:26.278Z,10.70
2022-11-19T01:38:55.950Z,11.90
2022-11-19T01:41:27.889Z,12.37
2022-11-19T01:44:02.325Z,12.43
2022-11-19T01:46:33.976Z,12.00
2022-11-19T01:49:13.041Z,11.90
2022-11-19T01:51:44.352Z,11.47
2022-11-19T01:54:21.388Z,11.50
2022-11-19T01:56:48.095Z,11.87
2022-11-19T01:59:16.208Z,11.77
2022-11-19T02:01:46.128Z,11.77
2022-11-19T02:04:16.596Z,11.10
2022-11-19T02:06:43.425Z,10.27
2022-11-19T02:09:10.140Z,10.47
2022-11-19T02:12:15.061Z,10.33
2022-11-19T02:15:02.793Z,11.23
2022-11-19T02:17:57.279Z,10.77
2022-11-19T02:20:42.640Z,11.20
2022-11-19T02:23:21.431Z,11.50
2022-11-19T02:26:09.505Z,11.37
2022-11-19T02:28:56.240Z,11.33
2022-11-19T02:31:25.402Z,10.33
2022-11-19T02:34:01.738Z,10.30
2022-11-19T02:36:32.984Z,10.53
2022-11-19T02:39:08.212Z,10.40
2022-11-19T02:41:46.210Z,10.77
2022-11-19T02:44:54.328Z,10.73
2022-11-19T02:47:22.732Z,10.73
2022-11-19T02:49:53.534Z,11.30
2022-11-19T02:52:22.532Z,10.90
2022-11-19T02:54:49.217Z,10.70
2022-11-19T02:57:15.954Z,11.40
2022-11-19T03:00:07.471Z,11.17
2022-11-19T03:02:55.088Z,11.70
2022-11-19T03:05:23.984Z,11.20
2022-11-19T03:07:52.812Z,11.73
2022-11-19T03:10:25.185Z,11.70
2022-11-19T03:12:54.545Z,11.70
2022-11-19T03:15:59.191Z,12.40
2022-11-19T03:18:47.691Z,11.30
2022-11-19T03:21:39.864Z,11.27
2022-11-19T03:24:23.272Z,11.17
2022-11-19T03:27:00.866Z,10.37
2022-11-19T03:29:27.864Z,11.03
2022-11-19T03:32:01.016Z,11.23
2022-11-19T03:34:28.416Z,10.93
2022-11-19T03:36:56.551Z,11.07
2022-11-19T03:39:23.262Z,10.23
2022-11-19T03:41:52.875Z,11.80
2022-11-19T03:44:31.442Z,9.80
2022-11-19T03:47:00.942Z,10.20
2022-11-19T03:49:32.038Z,9.60
2022-11-19T03:52:04.742Z,9.60
2022-11-19T03:54:31.564Z,9.30
2022-11-19T03:56:58.478Z,10.10
2022-11-19T03:59:30.429Z,9.60
2022-11-19T04:01:58.950Z,9.37
2022-11-19T04:04:37.814Z,10.53
2022-11-19T04:07:05.373Z,10.27
2022-11-19T04:09:34.631Z,10.63
2022-11-19T04:12:01.658Z,10.00
2022-11-19T04:14:28.410Z,9.90
2022-11-19T04:16:55.205Z,10.93
2022-11-19T04:19:24.445Z,10.43
2022-11-19T04:21:53.822Z,10.20
2022-11-19T04:24:22.761Z,10.67
2022-11-19T04:26:49.464Z,10.10
2022-11-19T04:29:16.335Z,10.27
2022-11-19T04:31:43.094Z,11.07
2022-11-19T04:34:09.796Z,10.30
2022-11-19T04:36:40.239Z,10.60
2022-11-19T04:39:07.057Z,10.70
2022-11-19T04:41:34.290Z,10.10
2022-11-19T04:44:01.109Z,11.27
2022-11-19T04:46:27.794Z,10.87
2022-11-19T04:48:54.564Z,11.60
2022-11-19T04:51:21.267Z,11.50
2022-11-19T04:53:50.147Z,11.40
2022-11-19T04:56:16.897Z,11.77
2022-11-19T04:58:43.620Z,12.90
2022-11-19T05:01:10.439Z,11.93
2022-11-19T05:03:37.121Z,12.47
2022-11-19T05:06:03.908Z,12.37
2022-11-19T05:08:30.637Z,12.53
2022-11-19T05:10:57.356Z,12.67
2022-11-19T05:13:24.250Z,13.57
2022-11-19T05:15:50.927Z,12.50
2022-11-19T05:18:17.791Z,11.57
2022-11-19T05:20:44.484Z,12.57
2022-11-19T05:23:13.693Z,11.93
2022-11-19T05:25:43.349Z,12.57
2022-11-19T05:28:10.153Z,12.23
2022-11-19T05:30:37.031Z,12.50
2022-11-19T05:33:03.828Z,12.40
2022-11-19T05:35:30.570Z,11.97
2022-11-19T05:37:59.916Z,12.80
2022-11-19T05:40:29.096Z,13.50
2022-11-19T05:42:58.247Z,13.23
2022-11-19T05:45:24.998Z,14.07
2022-11-19T05:47:55.159Z,13.83
2022-11-19T05:50:24.338Z,13.87
2022-11-19T05:52:53.541Z,13.63
2022-11-19T05:55:22.728Z,13.97
2022-11-19T05:57:49.581Z,14.93
2022-11-19T06:00:18.005Z,13.70
2022-11-19T06:02:44.844Z,14.50
2022-11-19T06:05:11.740Z,17.03
2022-11-19T06:07:38.576Z,15.40
2022-11-19T06:10:05.642Z,14.60
2022-11-19T06:12:32.329Z,14.13
2022-11-19T06:15:02.066Z,15.00
2022-11-19T06:17:29.028Z,15.13
2022-11-19T06:19:55.807Z,15.00
2022-11-19T06:22:22.535Z,15.43
2022-11-19T06:24:51.713Z,15.83
2022-11-19T06:27:18.859Z,14.90
2022-11-19T06:29:45.774Z,16.40
2022-11-19T06:32:12.552Z,15.93
2022-11-19T06:34:41.712Z,15.13
2022-11-19T06:37:08.487Z,14.93
2022-11-19T06:39:35.248Z,16.10
2022-11-19T06:42:20.893Z,16.40
2022-11-19T06:44:50.062Z,16.50
2022-11-19T06:47:19.230Z,16.13
2022-11-19T06:49:46.007Z,16.40
2022-11-19T06:52:12.687Z,16.70
2022-11-19T06:54:42.974Z,15.77
2022-11-19T06:57:12.471Z,16.10
2022-11-19T06:59:41.694Z,17.77
2022-11-19T07:02:09.951Z,17.93
2022-11-19T07:04:36.649Z,19.63
2022-11-19T07:07:03.717Z,15.80
2022-11-19T07:09:30.413Z,16.90
2022-11-19T07:11:57.158Z,15.73
2022-11-19T07:14:23.940Z,17.33
2022-11-19T07:16:50.652Z,18.23
2022-11-19T07:19:17.686Z,16.77
2022-11-19T07:21:47.119Z,16.07
2022-11-19T07:24:16.122Z,16.10
2022-11-19T07:26:45.130Z,17.43
2022-11-19T07:29:13.079Z,16.13
2022-11-19T07:31:39.768Z,17.60
2022-11-19T07:34:11.956Z,17.80
2022-11-19T07:36:41.120Z,24.93
2022-11-19T07:39:10.367Z,19.33
2022-11-19T07:41:55.784Z,18.00
2022-11-19T07:44:22.520Z,17.83
2022-11-19T07:46:51.477Z,17.80
2022-11-19T07:49:20.705Z,17.43
2022-11-19T07:51:47.822Z,17.43
2022-11-19T07:54:16.701Z,17.27
2022-11-19T07:56:46.093Z,16.87
2022-11-19T07:59:15.849Z,17.80
2022-11-19T08:01:43.053Z,17.50
2022-11-19T08:04:09.879Z,17.50
2022-11-19T08:06:36.593Z,16.80
2022-11-19T08:09:04.021Z,18.33
2022-11-19T08:11:30.835Z,17.50
2022-11-19T08:14:01.971Z,17.03
2022-11-19T08:16:47.138Z,18.20
2022-11-19T08:19:16.053Z,16.80
2022-11-19T08:21:44.378Z,26.37
2022-11-19T08:24:11.463Z,18.67
2022-11-19T08:26:38.405Z,16.57
2022-11-19T08:29:05.484Z,17.23
2022-11-19T08:31:32.239Z,17.57
2022-11-19T08:34:00.522Z,17.03
2022-11-19T08:36:27.681Z,17.10
2022-11-19T08:38:58.262Z,17.37
2022-11-19T08:41:43.804Z,16.80
2022-11-19T08:44:10.743Z,17.43
2022-11-19T08:46:38.125Z,16.63
2022-11-19T08:49:07.169Z,17.03
2022-11-19T08:51:36.489Z,16.37
2022-11-19T08:54:03.213Z,16.20
2022-11-19T08:56:29.974Z,16.80
2022-11-19T08:59:02.270Z,17.73
2022-11-19T09:01:32.043Z,15.80
2022-11-19T09:03:58.947Z,16.57
2022-11-19T09:06:25.805Z,15.70
2022-11-19T09:08:52.600Z,15.23
2022-11-19T09:11:22.150Z,15.23
2022-11-19T09:13:48.891Z,14.97
2022-11-19T09:16:15.681Z,15.77
2022-11-19T09:18:42.581Z,15.60
2022-11-19T09:21:12.390Z,16.00
2022-11-19T09:23:39.331Z,16.00
2022-11-19T09:26:09.660Z,16.73
2022-11-19T09:28:38.991Z,16.67
2022-11-19T09:31:08.065Z,15.73
2022-11-19T09:33:36.515Z,16.33
2022-11-19T09:36:03.760Z,16.60
2022-11-19T09:38:35.147Z,15.47
2022-11-19T09:41:18.870Z,15.70
2022-11-19T09:43:50.709Z,15.97
2022-11-19T09:46:25.754Z,16.60
2022-11-19T09:48:52.969Z,15.03
2022-11-19T09:51:22.157Z,14.67
2022-11-19T09:53:55.558Z,14.93
2022-11-19T09:56:35.268Z,14.73
2022-11-19T09:59:07.106Z,13.30
2022-11-19T10:01:35.999Z,13.73
2022-11-19T10:04:02.856Z,13.97
2022-11-19T10:06:35.462Z,14.13
2022-11-19T10:09:21.142Z,14.07
2022-11-19T10:12:06.671Z,13.47
2022-11-19T10:14:42.488Z,13.57
2022-11-19T10:17:35.482Z,13.17
2022-11-19T10:20:08.656Z,13.90
2022-11-19T10:22:38.555Z,14.53
2022-11-19T10:25:11.357Z,14.90
2022-11-19T10:27:55.215Z,14.40
2022-11-19T10:30:24.244Z,14.10
2022-11-19T10:33:10.674Z,14.40
2022-11-19T10:35:40.906Z,13.87
2022-11-19T10:38:16.708Z,14.23
2022-11-19T10:40:55.824Z,14.10
2022-11-19T10:43:41.748Z,13.97
2022-11-19T10:46:09.659Z,16.33
2022-11-19T10:48:50.274Z,14.03
2022-11-19T10:51:33.663Z,12.50
2022-11-19T10:54:02.699Z,12.63
2022-11-19T10:56:36.916Z,12.87
2022-11-19T10:59:09.860Z,12.77
2022-11-19T11:01:38.273Z,12.40
2022-11-19T11:04:20.924Z,12.60
2022-11-19T11:06:55.179Z,12.97
2022-11-19T11:09:28.104Z,12.77
2022-11-19T11:12:13.407Z,12.60
2022-11-19T11:14:52.937Z,12.63
2022-11-19T11:17:30.821Z,11.93
2022-11-19T11:19:58.956Z,11.37
2022-11-19T11:22:26.336Z,12.27
2022-11-19T11:24:53.061Z,12.47
2022-11-19T11:27:33.661Z,11.67
2022-11-19T11:30:14.311Z,11.77
2022-11-19T11:32:41.446Z,12.30
2022-11-19T11:35:34.564Z,11.63
2022-11-19T11:38:03.911Z,12.10
2022-11-19T11:40:31.105Z,12.03
2022-11-19T11:42:57.805Z,12.03
2022-11-19T11:45:31.949Z,12.07
2022-11-19T11:48:06.232Z,11.87
2022-11-19T11:50:35.552Z,11.90
2022-11-19T11:53:09.357Z,12.00
2022-11-19T11:55:41.320Z,11.50
2022-11-19T11:58:34.004Z,10.90
2022-11-19T12:01:19.914Z,11.83
2022-11-19T12:03:56.807Z,10.93
2022-11-19T12:06:26.288Z,11.20
2022-11-19T12:09:01.288Z,11.10
2022-11-19T12:11:54.206Z,11.33
2022-11-19T12:14:50.809Z,12.07
2022-11-19T12:17:32.411Z,9.93
2022-11-19T12:20:36.081Z,9.80
2022-11-19T12:23:11.974Z,10.33
2022-11-19T12:26:12.898Z,10.27
2022-11-19T12:28:46.182Z,10.40
2022-11-19T12:31:15.779Z,9.87
2022-11-19T12:34:01.481Z,10.73
2022-11-19T12:36:50.573Z,10.60
2022-11-19T12:39:35.565Z,10.00
2022-11-19T12:42:39.704Z,10.03
2022-11-19T12:45:12.760Z,10.00
2022-11-19T12:47:45.289Z,9.40
2022-11-19T12:50:27.139Z,8.93
2022-11-19T12:52:56.999Z,9.00
2022-11-19T12:55:33.363Z,9.13
2022-11-19T12:58:29.629Z,9.23
2022-11-19T13:01:05.068Z,8.60
2022-11-19T13:03:59.457Z,8.67
2022-11-19T13:06:50.312Z,8.67
2022-11-19T13:09:36.592Z,8.47
2022-11-19T13:12:09.117Z,10.53
2022-11-19T13:14:44.887Z,8.13
2022-11-19T13:17:36.111Z,7.73
2022-11-19T13:20:22.418Z,7.77
2022-11-19T13:22:49.522Z,8.20
2022-11-19T13:25:25.943Z,8.40
2022-11-19T13:27:53.578Z,8.23
2022-11-19T13:30:26.782Z,8.53
2022-11-19T13:33:05.811Z,9.17
2022-11-19T13:36:03.288Z,8.83
2022-11-19T13:38:59.352Z,8.67
2022-11-19T13:41:31.393Z,9.93
2022-11-19T13:44:20.036Z,9.30
2022-11-19T13:46:57.377Z,9.50
2022-11-19T13:49:36.868Z,9.43
2022-11-19T13:52:17.205Z,9.43
2022-11-19T13:54:45.161Z,9.23
2022-11-19T13:57:43.372Z,9.03
2022-11-19T14:00:39.348Z,9.63
2022-11-19T14:03:20.441Z,9.70
2022-11-19T14:06:02.902Z,9.47
2022-11-19T14:08:49.865Z,9.30
2022-11-19T14:12:13.011Z,8.90
2022-11-19T14:15:01.189Z,9.13
2022-11-19T14:18:11.471Z,10.07
2022-11-19T14:21:01.399Z,9.07
2022-11-19T14:23:56.430Z,9.13
2022-11-19T14:26:41.525Z,9.33
2022-11-19T14:29:26.327Z,9.53
2022-11-19T14:32:16.028Z,10.07
2022-11-19T14:35:07.441Z,12.43
2022-11-19T14:37:36.893Z,10.53
2022-11-19T14:40:12.645Z,10.40
2022-11-19T14:43:19.794Z,10.87
2022-11-19T14:46:02.844Z,9.70
2022-11-19T14:48:30.379Z,10.17
2022-11-19T14:51:09.962Z,10.37
2022-11-19T14:53:37.595Z,9.90
2022-11-19T14:56:11.483Z,10.67
2022-11-19T14:58:38.198Z,10.37
2022-11-19T15:01:18.015Z,10.40
2022-11-19T15:03:52.747Z,10.37
2022-11-19T15:06:19.540Z,11.67
2022-11-19T15:08:51.962Z,11.67
2022-11-19T15:11:24.346Z,11.40
2022-11-19T15:14:28.126Z,11.73
2022-11-19T15:16:58.329Z,11.70
2022-11-19T15:19:34.609Z,11.63
2022-11-19T15:22:10.889Z,12.27
2022-11-19T15:24:47.573Z,13.07
2022-11-19T15:27:20.090Z,12.30
2022-11-19T15:29:52.635Z,12.60
2022-11-19T15:32:34.477Z,11.17
2022-11-19T15:35:11.823Z,12.00
2022-11-19T15:37:56.288Z,12.53
2022-11-19T15:40:28.966Z,12.70
2022-11-19T15:43:19.314Z,12.67
2022-11-19T15:46:06.234Z,12.87
2022-11-19T15:48:49.944Z,12.63
2022-11-19T15:51:16.715Z,12.50
2022-11-19T15:54:06.272Z,13.03
2022-11-19T15:56:35.778Z,12.60
2022-11-19T15:59:06.367Z,12.93
2022-11-19T16:01:35.347Z,12.43
2022-11-19T16:04:13.544Z,13.00
2022-11-19T16:06:44.746Z,12.83
2022-11-19T16:09:19.967Z,13.27
2022-11-19T16:12:05.289Z,13.63
2022-11-19T16:14:50.335Z,13.73
2022-11-19T16:17:43.808Z,13.53
2022-11-19T16:20:11.060Z,13.47
2022-11-19T16:22:47.432Z,13.23
2022-11-19T16:25:19.362Z,13.70
2022-11-19T16:27:46.196Z,13.30
2022-11-19T16:30:23.832Z,14.27
2022-11-19T16:32:50.629Z,14.67
2022-11-19T16:35:27.871Z,15.10
2022-11-19T16:37:54.962Z,15.20
2022-11-19T16:40:21.706Z,15.40
2022-11-19T16:42:58.292Z,15.40
2022-11-19T16:45:29.903Z,16.50
2022-11-19T16:47:57.294Z,17.03
2022-11-19T16:50:27.227Z,17.57
2022-11-19T16:52:54.537Z,18.07
2022-11-19T16:55:24.362Z,17.70
2022-11-19T16:57:56.223Z,17.90
2022-11-19T17:00:24.259Z,18.00
2022-11-19T17:02:51.303Z,18.53
2022-11-19T17:05:21.789Z,19.37
2022-11-19T17:07:51.988Z,18.93
2022-11-19T17:10:27.030Z,19.47
2022-11-19T17:12:54.644Z,19.30
2022-11-19T17:15:40.328Z,18.73
2022-11-19T17:18:10.078Z,17.87
2022-11-19T17:20:36.823Z,18.43
2022-11-19T17:23:10.280Z,19.33
2022-11-19T17:25:44.759Z,17.77
2022-11-19T17:28:11.495Z,17.97
2022-11-19T17:30:38.319Z,17.07
2022-11-19T17:33:05.143Z,18.53
2022-11-19T17:35:32.881Z,17.47
2022-11-19T17:38:00.434Z,19.33
2022-11-19T17:40:27.156Z,17.97
2022-11-19T17:43:12.652Z,18.70
2022-11-19T17:45:39.371Z,18.47
2022-11-19T17:48:14.537Z,19.53
2022-11-19T17:50:43.476Z,20.43
2022-11-19T17:53:10.194Z,19.80
2022-11-19T17:55:41.755Z,18.23
2022-11-19T17:58:09.167Z,19.90
2022-11-19T18:00:38.149Z,19.53
2022-11-19T18:03:04.928Z,18.40
2022-11-19T18:05:35.849Z,19.00
2022-11-19T18:08:02.589Z,19.50
2022-11-19T18:10:29.325Z,18.43
2022-11-19T18:12:58.883Z,18.23
2022-11-19T18:15:25.582Z,18.13
2022-11-19T18:17:54.445Z,19.10
2022-11-19T18:20:23.698Z,19.00
2022-11-19T18:22:50.397Z,17.77
2022-11-19T18:25:18.569Z,16.83
2022-11-19T18:27:47.887Z,19.47
2022-11-19T18:30:17.512Z,21.30
2022-11-19T18:32:44.252Z,19.07
2022-11-19T18:35:15.526Z,18.40
2022-11-19T18:37:42.641Z,19.37
2022-11-19T18:40:09.701Z,19.63
2022-11-19T18:42:36.502Z,19.73
2022-11-19T18:45:03.296Z,18.60
2022-11-19T18:47:29.978Z,19.20
2022-11-19T18:50:01.110Z,21.10
2022-11-19T18:52:27.969Z,20.37
2022-11-19T18:54:54.841Z,20.23
2022-11-19T18:57:23.761Z,19.07
2022-11-19T18:59:55.148Z,20.13
2022-11-19T19:02:21.852Z,19.23
2022-11-19T19:04:51.053Z,20.30
2022-11-19T19:07:18.180Z,20.50
2022-11-19T19:09:44.911Z,20.30
2022-11-19T19:12:17.685Z,20.23
2022-11-19T19:14:45.508Z,20.83
2022-11-19T19:17:12.842Z,20.73
2022-11-19T19:19:41.763Z,21.07
2022-11-19T19:22:10.644Z,20.83
2022-11-19T19:24:39.879Z,20.87
2022-11-19T19:27:09.161Z,20.07
2022-11-19T19:29:36.083Z,20.80
2022-11-19T19:32:02.853Z,21.17
2022-11-19T19:34:29.991Z,21.13
2022-11-19T19:36:57.179Z,20.63
2022-11-19T19:39:26.979Z,19.80
2022-11-19T19:41:54.225Z,18.03
2022-11-19T19:44:20.908Z,18.87
2022-11-19T19:46:50.758Z,19.33
2022-11-19T19:49:17.504Z,20.00
2022-11-19T19:51:44.395Z,20.77
2022-11-19T19:54:11.176Z,19.70
2022-11-19T19:56:38.006Z,20.13
2022-11-19T19:59:06.919Z,21.00
2022-11-19T20:01:35.450Z,19.67
2022-11-19T20:04:07.477Z,20.03
2022-11-19T20:06:35.347Z,18.93
2022-11-19T20:09:07.036Z,20.13
2022-11-19T20:11:35.225Z,20.07
2022-11-19T20:14:01.995Z,18.90
2022-11-19T20:16:32.015Z,19.33
2022-11-19T20:18:59.472Z,19.73
2022-11-19T20:21:27.737Z,19.73
2022-11-19T20:23:56.664Z,20.00
2022-11-19T20:26:24.821Z,20.23
2022-11-19T20:28:58.110Z,19.67
2022-11-19T20:31:27.500Z,18.87
2022-11-19T20:33:55.987Z,19.70
2022-11-19T20:36:24.435Z,20.67
2022-11-19T20:38:51.348Z,20.63
2022-11-19T20:41:37.287Z,19.70
2022-11-19T20:44:23.403Z,19.60
2022-11-19T20:46:51.551Z,19.73
2022-11-19T20:49:19.223Z,20.97
2022-11-19T20:51:46.478Z,20.77
2022-11-19T20:54:13.225Z,21.17
2022-11-19T20:56:40.135Z,21.03
2022-11-19T20:59:06.962Z,20.67
2022-11-19T21:01:34.041Z,21.20
2022-11-19T21:04:00.787Z,20.83
2022-11-19T21:06:27.612Z,20.50
2022-11-19T21:08:57.404Z,19.70
2022-11-19T21:11:24.595Z,19.13
2022-11-19T21:13:51.412Z,19.60
2022-11-19T21:16:20.204Z,20.33
2022-11-19T21:18:49.213Z,21.20
2022-11-19T21:21:16.636Z,19.80
2022-11-19T21:23:43.897Z,20.50
2022-11-19T21:26:19.869Z,19.80
2022-11-19T21:28:48.447Z,19.87
2022-11-19T21:31:16.088Z,18.83
2022-11-19T21:33:42.986Z,20.80
2022-11-19T21:36:12.602Z,19.63
2022-11-19T21:38:39.493Z,19.70
2022-11-19T21:41:06.401Z,20.13
2022-11-19T21:43:33.156Z,19.50
2022-11-19T21:45:59.852Z,19.90
2022-11-19T21:48:27.031Z,18.90
2022-11-19T21:50:53.754Z,20.83
2022-11-19T21:53:22.793Z,22.93
2022-11-19T21:55:49.616Z,20.00
2022-11-19T21:58:16.797Z,20.57
2022-11-19T22:00:47.020Z,21.20
2022-11-19T22:03:14.403Z,21.33
2022-11-19T22:05:41.399Z,22.93
2022-11-19T22:08:08.500Z,22.07
2022-11-19T22:10:35.648Z,20.97
2022-11-19T22:13:02.786Z,20.87
2022-11-19T22:15:32.010Z,22.33
2022-11-19T22:17:58.724Z,22.30
2022-11-19T22:20:27.626Z,22.83
2022-11-19T22:22:58.206Z,23.13
2022-11-19T22:25:24.903Z,22.43
2022-11-19T22:27:53.896Z,24.20
2022-11-19T22:30:20.597Z,23.70
2022-11-19T22:32:47.283Z,25.07
2022-11-19T22:35:14.077Z,23.80
2022-11-19T22:37:40.772Z,25.30
2022-11-19T22:40:10.277Z,25.10
2022-11-19T22:42:36.982Z,24.87
2022-11-19T22:45:06.436Z,25.17
2022-11-19T22:47:33.168Z,25.73
2022-11-19T22:49:59.846Z,25.50
2022-11-19T22:52:31.114Z,25.40
2022-11-19T22:54:57.990Z,26.47
2022-11-19T22:57:25.603Z,26.03
2022-11-19T22:59:52.355Z,24.37
2022-11-19T23:02:19.053Z,25.10
2022-11-19T23:04:48.008Z,25.43
2022-11-19T23:07:16.790Z,25.10
2022-11-19T23:09:46.094Z,25.57
2022-11-19T23:12:31.603Z,25.33
2022-11-19T23:14:58.288Z,26.30
2022-11-19T23:17:25.035Z,25.93
2022-11-19T23:19:51.725Z,25.87
2022-11-19T23:22:18.404Z,26.70
2022-11-19T23:24:45.120Z,26.37
2022-11-19T23:27:12.095Z,25.57
2022-11-19T23:29:38.786Z,26.40
2022-11-19T23:32:08.191Z,27.30
2022-11-19T23:34:34.872Z,25.63
2022-11-19T23:37:03.802Z,25.57
2022-11-19T23:39:30.545Z,26.67
2022-11-19T23:41:57.283Z,25.80
2022-11-19T23:44:24.076Z,26.17
2022-11-19T23:46:53.273Z,26.60
2022-11-19T23:49:20.274Z,26.67
2022-11-19T23:51:47.155Z,26.00
2022-11-19T23:54:14.269Z,26.23
2022-11-19T23:56:43.311Z,26.50
2022-11-19T23:59:12.623Z,27.00
